Time;durP1;ratioP1;P1;durP2;ratioP2;P2;SDS_P1;SDS_P2;PMS_P1;PMS_P2;Temp;Humidity;BMP_temperature;BMP_pressure;BME280_temperature;BME280_humidity;BME280_pressure;Samples;Min_cycle;Max_cycle;Signal;HPM_P1;HPM_P2
2021/01/24 00:00:13;;;;;;;19.05;14.32;;;;;;;2.46;75.25;95688.19;10430594;28;20056;-71
2021/01/24 00:05:42;;;;;;;18.40;13.93;;;;;;;2.33;75.22;95685.97;10444287;28;20086;-72
2021/01/24 00:11:02;;;;;;;18.48;14.30;;;;;;;2.21;74.99;95691.38;10444491;28;20068;-72
2021/01/24 00:16:23;;;;;;;19.55;14.68;;;;;;;2.08;75.64;95680.16;10443307;28;20060;-72
2021/01/24 00:21:43;;;;;;;18.23;13.32;;;;;;;1.98;75.75;95675.44;10456593;28;20187;-72
2021/01/24 00:27:04;;;;;;;18.52;14.40;;;;;;;1.89;76.48;95662.44;10430332;28;20056;-72
2021/01/24 00:32:23;;;;;;;19.23;13.27;;;;;;;1.85;76.11;95653.94;10463976;28;20557;-72
2021/01/24 00:37:43;;;;;;;14.20;11.80;;;;;;;1.73;76.38;95655.84;10464939;28;20067;-72
2021/01/24 00:43:03;;;;;;;15.48;11.93;;;;;;;1.65;76.46;95652.56;10450240;28;20057;-72
2021/01/24 00:48:24;;;;;;;14.98;12.18;;;;;;;1.60;77.49;95642.59;10465104;28;20063;-72
2021/01/24 00:53:43;;;;;;;15.82;11.63;;;;;;;1.60;76.28;95642.59;10463291;28;20082;-72
2021/01/24 00:59:03;;;;;;;16.08;12.43;;;;;;;1.66;76.78;95652.00;10463225;28;20487;-72
2021/01/24 01:04:23;;;;;;;17.77;13.25;;;;;;;1.75;76.63;95650.50;10435212;28;20094;-72
2021/01/24 01:09:43;;;;;;;19.20;13.75;;;;;;;1.84;75.95;95643.50;10464245;28;20450;-72
2021/01/24 01:15:04;;;;;;;19.85;13.63;;;;;;;1.97;76.53;95645.75;10448549;28;20060;-72
2021/01/24 01:20:25;;;;;;;18.67;13.25;;;;;;;2.00;76.07;95648.03;10435266;28;20064;-72
2021/01/24 01:25:44;;;;;;;16.42;13.00;;;;;;;2.03;76.08;95648.16;10435348;28;20111;-72
2021/01/24 01:31:04;;;;;;;17.52;12.95;;;;;;;2.12;76.09;95655.66;10448024;28;20503;-72
2021/01/24 01:36:24;;;;;;;15.93;11.70;;;;;;;2.16;75.92;95661.44;10462561;28;20414;-72
2021/01/24 01:41:44;;;;;;;14.88;11.07;;;;;;;2.15;76.05;95666.22;10462258;28;20511;-72
2021/01/24 01:47:04;;;;;;;14.13;10.38;;;;;;;2.13;76.29;95662.63;10462252;28;20068;-72
2021/01/24 01:52:28;;;;;;;15.85;11.88;;;;;;;2.10;76.53;95661.75;10447009;28;20061;-72
2021/01/24 01:57:48;;;;;;;14.00;10.52;;;;;;;2.10;76.46;95655.53;10447070;28;20064;-72
2021/01/24 02:04:09;;;;;;;16.27;11.85;;;;;;;2.14;76.46;95645.50;10445576;28;20065;-72
2021/01/24 02:09:43;;;;;;;16.25;11.43;;;;;;;2.24;76.01;95637.19;10415177;28;20116;-72
2021/01/24 02:15:05;;;;;;;15.80;12.13;;;;;;;2.28;76.69;95627.16;10444856;28;20057;-72
2021/01/24 02:20:55;;;;;;;17.65;12.38;;;;;;;2.34;76.00;95610.31;10460874;28;20061;-72
2021/01/24 02:26:34;;;;;;;16.95;11.65;;;;;;;2.32;76.57;95610.19;10448279;28;20404;-72
2021/01/24 02:31:55;;;;;;;15.90;11.90;;;;;;;2.34;76.59;95617.88;10447204;28;20403;-72
2021/01/24 02:37:15;;;;;;;16.45;11.88;;;;;;;2.34;76.04;95621.34;10459252;28;20067;-72
2021/01/24 02:42:35;;;;;;;16.77;12.85;;;;;;;2.38;76.09;95618.09;10432147;28;20140;-72
2021/01/24 02:47:55;;;;;;;15.77;11.60;;;;;;;2.43;76.20;95628.09;10418638;28;20057;-72
2021/01/24 02:53:15;;;;;;;16.92;12.88;;;;;;;2.43;76.05;95628.81;10444703;28;20061;-72
2021/01/24 02:58:35;;;;;;;16.27;12.13;;;;;;;2.47;75.73;95629.06;10444748;28;20056;-72
2021/01/24 03:03:55;;;;;;;17.75;11.85;;;;;;;2.43;76.17;95619.81;10445515;28;20067;-72
2021/01/24 03:09:15;;;;;;;16.42;12.60;;;;;;;2.42;76.13;95615.63;10458427;28;20377;-72
2021/01/24 03:14:35;;;;;;;17.13;12.65;;;;;;;2.17;76.70;95602.31;10459674;28;20061;-72
2021/01/24 03:19:56;;;;;;;16.10;12.25;;;;;;;1.96;75.86;95603.75;10444171;28;20068;-72
2021/01/24 03:25:16;;;;;;;15.52;11.73;;;;;;;1.95;76.61;95604.34;10443780;28;20403;-72
2021/01/24 03:30:35;;;;;;;15.10;11.30;;;;;;;1.98;76.52;95603.16;10459044;28;20357;-72
2021/01/24 03:35:55;;;;;;;18.73;12.82;;;;;;;1.98;76.68;95589.41;10445077;28;20053;-73
2021/01/24 03:41:15;;;;;;;16.60;12.43;;;;;;;1.84;77.42;95583.00;10458639;28;20059;-72
2021/01/24 03:46:35;;;;;;;17.05;12.88;;;;;;;1.77;77.12;95568.09;10458494;28;20061;-72
2021/01/24 03:51:55;;;;;;;17.77;13.35;;;;;;;1.73;76.86;95567.81;10430535;28;20060;-72
2021/01/24 03:57:15;;;;;;;16.77;12.75;;;;;;;1.64;76.89;95576.84;10457358;28;20064;-72
2021/01/24 04:02:35;;;;;;;16.98;12.82;;;;;;;1.69;77.38;95573.06;10458498;28;20061;-72
2021/01/24 04:07:54;;;;;;;18.38;13.00;;;;;;;1.60;77.71;95576.59;10451300;28;20060;-72
2021/01/24 04:13:14;;;;;;;15.50;11.45;;;;;;;1.57;77.42;95584.00;10464912;28;20072;-72
2021/01/24 04:18:34;;;;;;;14.98;12.23;;;;;;;1.60;77.39;95582.09;10464835;28;20076;-72
2021/01/24 04:23:54;;;;;;;16.60;12.30;;;;;;;1.63;77.54;95594.66;10464353;28;20087;-72
2021/01/24 04:29:13;;;;;;;17.58;12.90;;;;;;;1.69;76.93;95600.56;10436523;28;20056;-72
2021/01/24 04:34:33;;;;;;;16.35;12.15;;;;;;;1.76;77.59;95599.69;10465676;28;20064;-72
2021/01/24 04:39:53;;;;;;;14.80;10.82;;;;;;;1.78;76.63;95593.59;10464106;28;20477;-72
2021/01/24 04:45:13;;;;;;;13.60;10.68;;;;;;;1.77;76.88;95581.88;10436035;28;20415;-72
2021/01/24 04:50:33;;;;;;;14.55;10.68;;;;;;;1.83;76.88;95590.50;10464602;28;20049;-72
2021/01/24 04:55:53;;;;;;;13.55;10.50;;;;;;;1.83;76.92;95582.25;10450370;28;20063;-72
2021/01/24 05:01:14;;;;;;;12.82;10.15;;;;;;;1.82;77.05;95575.31;10450073;28;20057;-72
2021/01/24 05:06:33;;;;;;;14.77;10.32;;;;;;;1.84;76.83;95563.72;10448980;28;20053;-72
2021/01/24 05:11:53;;;;;;;10.45;8.30;;;;;;;1.82;76.92;95552.56;10449766;28;20068;-72
2021/01/24 05:17:13;;;;;;;8.32;5.97;;;;;;;1.82;76.41;95547.78;10448965;28;20057;-72
2021/01/24 05:22:39;;;;;;;8.68;6.28;;;;;;;1.86;76.37;95542.56;10462168;28;20067;-72
2021/01/24 05:28:20;;;;;;;8.82;6.90;;;;;;;1.91;76.35;95549.03;10420543;28;20057;-72
2021/01/24 05:33:46;;;;;;;9.13;7.03;;;;;;;1.98;76.92;95546.09;10462976;28;20085;-72
2021/01/24 05:39:06;;;;;;;9.88;6.80;;;;;;;2.01;76.93;95553.16;10448200;28;20072;-72
2021/01/24 05:44:27;;;;;;;8.43;6.70;;;;;;;2.00;76.30;95546.22;10447848;28;20071;-72
2021/01/24 05:49:47;;;;;;;10.40;7.15;;;;;;;2.03;76.54;95543.59;10433674;28;20076;-74
2021/01/24 05:55:08;;;;;;;10.40;7.47;;;;;;;2.01;76.30;95552.44;10446635;28;20068;-74
2021/01/24 06:00:29;;;;;;;11.02;7.85;;;;;;;2.00;76.49;95562.00;10449425;28;20511;-74
2021/01/24 06:05:49;;;;;;;10.07;8.02;;;;;;;2.02;76.45;95559.38;10479485;28;20723;-74
2021/01/24 06:11:09;;;;;;;11.25;8.65;;;;;;;2.04;76.95;95556.06;10460747;28;20057;-74
2021/01/24 06:16:36;;;;;;;11.38;8.43;;;;;;;2.09;75.86;95566.00;10431905;28;20068;-74
2021/01/24 06:21:56;;;;;;;12.73;9.20;;;;;;;2.06;76.56;95564.44;10467782;28;20442;-74
2021/01/24 06:27:21;;;;;;;13.65;9.18;;;;;;;1.91;76.55;95577.28;10485883;28;20109;-74
2021/01/24 06:32:41;;;;;;;;;;;;;;;1.83;76.57;95579.50;10473739;28;20060;-74
2021/01/24 06:38:01;;;;;;;13.60;10.07;;;;;;;1.76;76.52;95577.69;10499954;28;19921;-75
2021/01/24 06:43:38;;;;;;;14.65;10.65;;;;;;;1.75;76.84;95578.97;10500182;28;20056;-74
2021/01/24 06:48:58;;;;;;;15.85;11.43;;;;;;;1.71;76.82;95575.94;10500802;28;20499;-74
2021/01/24 06:54:20;;;;;;;15.55;11.27;;;;;;;1.65;76.77;95583.81;10469417;28;20057;-75
2021/01/24 06:59:40;;;;;;;16.98;11.93;;;;;;;1.63;77.04;95586.41;10458603;28;20410;-74
2021/01/24 07:05:19;;;;;;;19.63;12.68;;;;;;;1.53;77.13;95588.50;10444130;28;20068;-74
2021/01/24 07:10:38;;;;;;;18.98;13.10;;;;;;;1.51;77.27;95591.09;10458691;28;20056;-75
2021/01/24 07:16:04;;;;;;;16.33;11.70;;;;;;;1.57;77.50;95580.53;10466321;28;20053;-75
2021/01/24 07:21:27;;;;;;;15.25;11.27;;;;;;;1.68;77.20;95579.88;10471692;28;20065;-74
2021/01/24 07:26:47;;;;;;;16.45;11.80;;;;;;;1.58;77.57;95579.22;10460595;28;20057;-75
2021/01/24 07:32:08;;;;;;;15.02;10.85;;;;;;;1.60;76.59;95574.56;10444557;28;20384;-74
2021/01/24 07:37:28;;;;;;;13.60;10.25;;;;;;;1.59;77.58;95583.41;10460098;28;20057;-75
2021/01/24 07:42:48;;;;;;;13.63;10.40;;;;;;;1.56;77.10;95590.09;10438397;28;20061;-74
2021/01/24 07:48:08;;;;;;;14.13;10.20;;;;;;;1.72;77.09;95596.66;10451616;28;20069;-74
2021/01/24 07:53:28;;;;;;;14.98;10.27;;;;;;;1.78;76.49;95591.56;10466805;28;20064;-74
2021/01/24 07:58:49;;;;;;;14.05;9.48;;;;;;;1.78;77.23;95608.06;10490957;28;20418;-74
2021/01/24 08:04:09;;;;;;;12.98;9.65;;;;;;;1.72;77.07;95599.41;10493554;28;20063;-74
2021/01/24 08:09:28;;;;;;;14.27;10.50;;;;;;;1.67;77.49;95625.19;10489019;28;20494;-74
2021/01/24 08:14:48;;;;;;;16.23;11.05;;;;;;;1.63;77.78;95613.91;10491934;28;20052;-75
2021/01/24 08:20:09;;;;;;;14.80;10.45;;;;;;;1.69;77.69;95615.06;10492399;28;20490;-74
2021/01/24 08:25:28;;;;;;;14.15;10.77;;;;;;;1.60;78.36;95609.59;10491666;28;20094;-74
2021/01/24 08:30:48;;;;;;;13.75;10.20;;;;;;;1.62;80.92;95613.19;10505653;28;20056;-74
2021/01/24 08:36:20;;;;;;;12.88;9.90;;;;;;;1.65;80.04;95616.81;10482008;28;20090;-74
2021/01/24 08:41:40;;;;;;;11.40;8.38;;;;;;;1.62;79.83;95618.69;10505281;28;20067;-74
2021/01/24 08:47:05;;;;;;;9.93;8.02;;;;;;;1.64;79.74;95612.59;10506070;28;20063;-74
2021/01/24 08:52:24;;;;;;;10.65;7.82;;;;;;;1.72;78.65;95621.41;10476316;28;20087;-74
2021/01/24 08:57:44;;;;;;;9.98;7.85;;;;;;;1.74;79.19;95607.81;10473599;28;20057;-74
2021/01/24 09:03:22;;;;;;;9.10;7.75;;;;;;;1.89;79.39;95612.91;10464004;28;20057;-74
2021/01/24 09:08:59;;;;;;;9.05;6.97;;;;;;;1.94;78.55;95609.13;10448582;28;20458;-74
2021/01/24 09:14:18;;;;;;;7.68;6.53;;;;;;;2.02;77.78;95614.44;10449555;28;20065;-74
2021/01/24 09:19:48;;;;;;;8.77;7.35;;;;;;;2.00;78.35;95617.06;10434946;28;20086;-74
2021/01/24 09:25:09;;;;;;;8.93;6.68;;;;;;;2.13;77.48;95624.81;10435233;28;20515;-74
2021/01/24 09:30:30;;;;;;;8.60;6.82;;;;;;;2.24;77.56;95615.19;10461396;28;20088;-74
2021/01/24 09:35:49;;;;;;;7.10;5.88;;;;;;;2.45;77.61;95620.66;10460702;28;20136;-76
2021/01/24 09:41:09;;;;;;;7.10;4.90;;;;;;;2.58;76.70;95611.84;10460277;28;20613;-77
2021/01/24 09:46:29;;;;;;;5.97;5.35;;;;;;;2.70;77.17;95616.69;10446236;28;20402;-74
2021/01/24 09:51:49;;;;;;;5.53;4.50;;;;;;;2.95;77.12;95627.91;10460556;28;20060;-76
2021/01/24 09:57:09;;;;;;;6.05;4.35;;;;;;;3.05;76.01;95623.03;10460707;28;20059;-77
2021/01/24 10:02:29;;;;;;;5.63;4.63;;;;;;;3.24;75.88;95626.91;10444231;28;20065;-78
2021/01/24 10:07:49;;;;;;;6.15;4.15;;;;;;;3.18;74.95;95632.78;10460265;28;20499;-77
2021/01/24 10:13:09;;;;;;;5.35;4.05;;;;;;;3.36;75.60;95635.91;10444990;28;20075;-77
2021/01/24 10:18:28;;;;;;;5.55;4.25;;;;;;;3.43;73.62;95626.72;10458866;28;20069;-75
2021/01/24 10:23:49;;;;;;;4.88;3.05;;;;;;;4.37;73.28;95623.91;10460056;28;20115;-73
2021/01/24 10:29:08;;;;;;;4.40;3.22;;;;;;;5.79;67.49;95628.81;10417661;28;20064;-72
2021/01/24 10:34:28;;;;;;;3.80;2.40;;;;;;;6.96;67.63;95633.22;10458151;28;20088;-75
2021/01/24 10:39:48;;;;;;;3.38;1.67;;;;;;;8.47;68.54;95629.50;10458223;28;20407;-75
2021/01/24 10:45:12;;;;;;;3.40;1.35;;;;;;;10.81;59.30;95637.50;10458683;28;20135;-75
2021/01/24 10:50:33;;;;;;;2.00;1.35;;;;;;;11.04;57.71;95645.22;10485341;28;20140;-74
2021/01/24 10:55:53;;;;;;;1.63;1.23;;;;;;;10.89;59.23;95646.09;10445626;28;20508;-74
2021/01/24 11:01:13;;;;;;;2.65;1.10;;;;;;;9.18;59.91;95656.72;10444223;28;20060;-74
2021/01/24 11:06:33;;;;;;;1.80;1.00;;;;;;;7.39;59.66;95660.88;10457467;28;20056;-75
2021/01/24 11:11:53;;;;;;;1.33;0.82;;;;;;;6.17;59.39;95659.81;10457765;28;20057;-77
2021/01/24 11:17:12;;;;;;;1.42;1.00;;;;;;;5.55;61.13;95666.28;10459105;28;20140;-75
2021/01/24 11:22:32;;;;;;;1.40;0.90;;;;;;;5.32;60.96;95681.72;10457127;28;20140;-76
2021/01/24 11:27:52;;;;;;;2.38;0.75;;;;;;;6.14;60.17;95659.00;10458214;28;20087;-75
2021/01/24 11:33:12;;;;;;;1.60;0.82;;;;;;;6.39;57.86;95669.28;10457740;28;20056;-73
2021/01/24 11:38:33;;;;;;;2.03;1.33;;;;;;;7.26;56.56;95688.72;10458074;28;20110;-76
2021/01/24 11:43:53;;;;;;;2.38;1.60;;;;;;;7.65;56.21;95691.94;10456362;28;20065;-76
2021/01/24 11:49:12;;;;;;;2.35;1.38;;;;;;;7.57;55.55;95699.88;10458100;28;20414;-74
2021/01/24 11:54:32;;;;;;;3.10;1.20;;;;;;;6.76;57.01;95701.59;10457723;28;20080;-74
2021/01/24 11:59:52;;;;;;;3.08;1.50;;;;;;;6.20;56.27;95703.66;10460378;28;20076;-75
2021/01/24 12:05:13;;;;;;;2.63;1.50;;;;;;;5.20;56.68;95705.91;10462469;28;20060;-75
2021/01/24 12:10:33;;;;;;;4.22;1.50;;;;;;;4.88;57.33;95704.84;10497224;28;20056;-75
2021/01/24 12:15:53;;;;;;;3.28;1.50;;;;;;;4.66;57.88;95709.84;10512078;28;20059;-75
2021/01/24 12:21:13;;;;;;;2.58;1.58;;;;;;;4.11;58.39;95728.75;10483260;28;20068;-75
2021/01/24 12:26:33;;;;;;;5.25;1.17;;;;;;;3.88;58.25;95706.66;10503380;28;20113;-76
2021/01/24 12:31:53;;;;;;;2.80;1.40;;;;;;;3.41;59.33;95715.56;10505529;28;20078;-77
2021/01/24 12:37:13;;;;;;;1.50;1.08;;;;;;;3.11;59.50;95728.19;10505155;28;20127;-77
2021/01/24 12:42:33;;;;;;;3.40;1.70;;;;;;;3.15;60.69;95713.91;10505712;28;20060;-78
2021/01/24 12:47:54;;;;;;;3.25;1.40;;;;;;;3.20;60.77;95714.91;10503948;28;20414;-77
2021/01/24 12:53:14;;;;;;;3.03;1.58;;;;;;;2.90;61.19;95706.16;10517650;28;20069;-79
2021/01/24 12:58:34;;;;;;;2.63;1.50;;;;;;;2.76;61.45;95722.50;10514495;28;20061;-78
2021/01/24 13:03:54;;;;;;;1.77;1.20;;;;;;;2.87;61.39;95735.59;10519886;28;20522;-80
2021/01/24 13:09:15;;;;;;;3.05;1.67;;;;;;;3.03;60.72;95735.94;10876320;22;20056;-78
2021/01/24 13:14:35;;;;;;;2.47;1.58;;;;;;;2.82;61.70;95738.72;10482187;28;20060;-77
2021/01/24 13:20:23;;;;;;;2.50;1.38;;;;;;;2.62;62.03;95740.16;11267050;22;20147;-76
2021/01/24 13:25:44;;;;;;;2.92;1.23;;;;;;;2.60;61.94;95746.22;10532926;28;20383;-79
2021/01/24 13:31:04;;;;;;;2.15;1.40;;;;;;;2.40;63.21;95748.38;10521161;28;20056;-78
2021/01/24 13:36:24;;;;;;;2.20;1.30;;;;;;;2.22;62.07;95728.63;10548713;28;20060;-75
2021/01/24 13:41:44;;;;;;;2.88;1.40;;;;;;;2.12;63.22;95751.97;10532538;28;20067;-76
2021/01/24 13:47:04;;;;;;;2.35;1.27;;;;;;;2.00;65.18;95744.34;10547467;28;20064;-75
2021/01/24 13:52:24;;;;;;;2.15;1.33;;;;;;;1.85;64.92;95749.50;10562950;28;20470;-79
2021/01/24 13:57:44;;;;;;;2.72;1.70;;;;;;;1.77;64.99;95754.44;10560672;28;20068;-80
2021/01/24 14:03:12;;;;;;;2.00;1.45;;;;;;;1.83;64.78;95768.59;10561800;28;20064;-79
2021/01/24 14:08:35;;;;;;;2.28;1.35;;;;;;;2.07;64.99;95753.03;10570909;28;20063;-78
2021/01/24 14:14:18;;;;;;;2.50;1.60;;;;;;;2.21;64.38;95778.75;10535542;28;20066;-82
2021/01/24 14:19:38;;;;;;;2.08;1.40;;;;;;;2.28;63.86;95778.56;10534780;28;20949;-74
2021/01/24 14:24:58;;;;;;;1.40;1.05;;;;;;;2.29;63.84;95791.03;10542560;28;20132;-74
2021/01/24 14:30:20;;;;;;;2.22;1.52;;;;;;;2.09;64.18;95795.16;10541830;28;20066;-74
2021/01/24 14:35:40;;;;;;;2.63;1.60;;;;;;;2.01;64.59;95795.34;10542685;28;20066;-74
2021/01/24 14:41:00;;;;;;;3.20;1.60;;;;;;;1.99;65.74;95800.72;10541394;28;20105;-74
2021/01/24 14:46:20;;;;;;;3.17;1.70;;;;;;;1.83;65.94;95799.59;10526975;28;20056;-75
2021/01/24 14:51:40;;;;;;;2.60;1.33;;;;;;;1.70;65.15;95798.03;10546890;28;20529;-76
2021/01/24 14:57:00;;;;;;;2.55;1.48;;;;;;;1.57;66.02;95806.03;10523985;28;20549;-77
2021/01/24 15:02:21;;;;;;;2.65;1.63;;;;;;;1.46;66.00;95807.34;10526798;28;20399;-76
2021/01/24 15:07:41;;;;;;;3.63;1.73;;;;;;;1.48;67.10;95820.50;10541324;28;20138;-76
2021/01/24 15:13:01;;;;;;;3.33;1.40;;;;;;;1.40;66.48;95799.38;10541451;28;20637;-72
2021/01/24 15:18:22;;;;;;;2.35;1.48;;;;;;;1.40;67.00;95799.38;10541281;28;20071;-71
2021/01/24 15:23:42;;;;;;;2.30;1.30;;;;;;;1.37;66.28;95797.06;10511417;28;20151;-71
2021/01/24 15:29:02;;;;;;;2.50;1.70;;;;;;;1.21;67.61;95798.66;10525920;28;20091;-72
2021/01/24 15:34:25;;;;;;;2.72;1.58;;;;;;;1.18;66.66;95788.84;10526773;28;20452;-77
2021/01/24 15:39:45;;;;;;;2.42;1.70;;;;;;;1.15;67.63;95787.94;10543847;28;20135;-75
2021/01/24 15:45:07;;;;;;;3.22;1.80;;;;;;;1.14;67.27;95778.25;10540109;28;20060;-74
2021/01/24 15:50:27;;;;;;;2.10;1.58;;;;;;;1.14;66.69;95800.97;10539085;28;20059;-75
2021/01/24 15:55:47;;;;;;;3.28;1.80;;;;;;;1.12;66.85;95791.84;10525059;28;20087;-74
2021/01/24 16:01:07;;;;;;;2.40;1.52;;;;;;;1.07;67.29;95781.88;10545949;28;20125;-74
2021/01/24 16:06:27;;;;;;;2.58;1.50;;;;;;;0.98;68.29;95779.84;10554136;28;20524;-77
2021/01/24 16:11:47;;;;;;;2.80;1.60;;;;;;;1.00;67.66;95783.47;10549135;28;20412;-77
2021/01/24 16:17:07;;;;;;;3.38;1.83;;;;;;;0.95;68.40;95783.75;10548759;28;20139;-74
2021/01/24 16:22:27;;;;;;;3.38;1.98;;;;;;;0.84;68.55;95772.03;10543167;28;20064;-73
2021/01/24 16:27:47;;;;;;;3.38;1.92;;;;;;;0.80;68.52;95782.72;10544549;28;20112;-75
2021/01/24 16:33:09;;;;;;;4.43;2.20;;;;;;;0.79;68.66;95775.78;10547877;28;20060;-75
2021/01/24 16:38:30;;;;;;;3.22;2.10;;;;;;;0.80;68.31;95787.50;10546181;28;20563;-74
2021/01/24 16:43:49;;;;;;;3.60;2.45;;;;;;;0.77;68.58;95797.63;10545778;28;20490;-74
2021/01/24 16:49:09;;;;;;;4.50;2.03;;;;;;;0.78;69.53;95785.34;10546276;28;20075;-76
2021/01/24 16:54:33;;;;;;;3.67;2.00;;;;;;;0.83;69.22;95797.31;10546957;28;20105;-76
2021/01/24 16:59:54;;;;;;;2.92;1.90;;;;;;;0.86;68.82;95794.16;10544749;28;20426;-76
2021/01/24 17:05:13;;;;;;;3.03;1.90;;;;;;;0.92;68.81;95777.38;10545581;28;20064;-76
2021/01/24 17:10:33;;;;;;;3.55;1.70;;;;;;;0.96;68.69;95787.94;10544810;28;20062;-76
2021/01/24 17:15:53;;;;;;;3.58;2.00;;;;;;;0.94;69.21;95788.50;10545312;28;20105;-76
2021/01/24 17:21:12;;;;;;;3.38;1.92;;;;;;;0.90;69.41;95795.75;10545216;28;20067;-74
2021/01/24 17:26:32;;;;;;;3.95;2.10;;;;;;;0.94;69.31;95798.78;10545506;28;20060;-77
2021/01/24 17:31:53;;;;;;;4.35;2.90;;;;;;;0.97;69.53;95801.13;10546243;28;20064;-78
2021/01/24 17:37:13;;;;;;;3.85;2.13;;;;;;;0.98;69.68;95790.84;10545503;28;20060;-78
2021/01/24 17:42:32;;;;;;;2.63;2.00;;;;;;;1.05;69.69;95796.19;10545088;28;20480;-76
2021/01/24 17:47:52;;;;;;;3.55;2.10;;;;;;;1.07;69.82;95803.88;10545117;28;20056;-74
2021/01/24 17:53:12;;;;;;;2.88;1.90;;;;;;;1.09;69.37;95795.78;10529516;28;20066;-74
2021/01/24 17:58:32;;;;;;;3.30;1.77;;;;;;;1.11;70.03;95801.41;10542688;28;20064;-79
2021/01/24 18:03:54;;;;;;;4.13;1.98;;;;;;;1.12;69.40;95811.09;10545249;28;20405;-81
2021/01/24 18:09:14;;;;;;;4.00;2.03;;;;;;;1.21;69.29;95807.63;10544236;28;20535;-75
2021/01/24 18:14:33;;;;;;;3.88;2.10;;;;;;;1.16;70.33;95805.91;10528352;28;20060;-76
2021/01/24 18:19:54;;;;;;;4.75;2.20;;;;;;;1.19;69.58;95804.75;10543309;28;20409;-77
2021/01/24 18:25:14;;;;;;;4.68;2.33;;;;;;;1.15;70.25;95815.44;10542747;28;20064;-77
2021/01/24 18:30:33;;;;;;;4.30;2.40;;;;;;;1.13;70.04;95818.75;10543437;28;20058;-79
2021/01/24 18:35:53;;;;;;;2.85;1.50;;;;;;;1.07;70.35;95821.09;10542844;28;20058;-77
2021/01/24 18:41:13;;;;;;;2.63;1.52;;;;;;;1.08;69.77;95828.03;10542373;28;20060;-77
2021/01/24 18:46:34;;;;;;;2.53;1.40;;;;;;;1.19;71.05;95826.00;10541323;28;20063;-74
2021/01/24 18:51:54;;;;;;;2.60;1.60;;;;;;;1.15;70.90;95821.66;10541077;28;20398;-77
2021/01/24 18:57:13;;;;;;;4.40;1.65;;;;;;;1.14;71.10;95824.97;10512662;28;20056;-76
2021/01/24 19:02:33;;;;;;;2.45;1.38;;;;;;;1.15;70.59;95821.66;10541556;28;20063;-77
2021/01/24 19:07:53;;;;;;;2.47;1.58;;;;;;;1.17;71.15;95837.56;10526543;28;20189;-77
2021/01/24 19:13:13;;;;;;;2.22;1.50;;;;;;;1.18;71.53;95836.28;10540500;28;20526;-77
2021/01/24 19:18:32;;;;;;;1.73;1.05;;;;;;;1.25;70.48;95834.66;10541214;28;20094;-77
2021/01/24 19:23:52;;;;;;;2.58;1.38;;;;;;;1.29;71.26;95846.69;10541239;28;20067;-77
2021/01/24 19:29:13;;;;;;;1.80;1.20;;;;;;;1.27;71.09;95845.84;10541049;28;20060;-77
2021/01/24 19:34:35;;;;;;;1.52;1.10;;;;;;;1.15;71.55;95860.13;10541187;28;20060;-75
2021/01/24 19:39:55;;;;;;;1.90;1.10;;;;;;;1.14;71.72;95855.19;10541280;28;20102;-75
2021/01/24 19:45:15;;;;;;;2.10;1.23;;;;;;;1.13;71.89;95862.72;10540751;28;20134;-76
2021/01/24 19:50:35;;;;;;;1.88;1.08;;;;;;;1.01;72.06;95867.34;10525428;28;20129;-75
2021/01/24 19:55:55;;;;;;;3.33;1.35;;;;;;;0.98;72.52;95884.25;10539653;28;20056;-76
2021/01/24 20:01:15;;;;;;;2.50;1.38;;;;;;;0.99;72.14;95880.22;10540292;28;20444;-76
2021/01/24 20:06:35;;;;;;;3.28;1.83;;;;;;;1.00;72.47;95895.41;10539366;28;20052;-75
2021/01/24 20:11:55;;;;;;;2.60;1.75;;;;;;;0.94;72.41;95889.44;10525177;28;20067;-76
2021/01/24 20:17:16;;;;;;;2.90;1.50;;;;;;;0.80;73.15;95902.88;10540885;28;20505;-76
2021/01/24 20:22:36;;;;;;;2.60;1.70;;;;;;;0.69;72.37;95904.13;10540436;28;20143;-76
2021/01/24 20:27:56;;;;;;;3.10;1.40;;;;;;;0.64;74.10;95902.38;10540435;28;20052;-76
2021/01/24 20:33:15;;;;;;;2.80;1.17;;;;;;;0.61;73.31;95917.25;10538978;28;20583;-77
2021/01/24 20:38:35;;;;;;;3.13;1.73;;;;;;;0.68;73.31;95923.94;10539622;28;20063;-76
2021/01/24 20:43:55;;;;;;;2.45;1.50;;;;;;;0.76;73.16;95925.25;10539165;28;20060;-75
2021/01/24 20:49:15;;;;;;;2.15;1.23;;;;;;;0.86;73.33;95930.78;10546854;28;20436;-75
2021/01/24 20:54:34;;;;;;;2.05;1.35;;;;;;;0.97;73.27;95935.75;10546817;28;20453;-76
2021/01/24 20:59:54;;;;;;;2.60;1.25;;;;;;;1.05;72.35;95936.31;10546367;28;20055;-76
2021/01/24 21:05:14;;;;;;;2.53;1.33;;;;;;;1.13;72.66;95930.72;10546288;28;20064;-77
2021/01/24 21:10:34;;;;;;;2.58;1.75;;;;;;;1.19;72.98;95931.16;10545976;28;20098;-77
2021/01/24 21:15:54;;;;;;;2.80;1.80;;;;;;;1.24;72.79;95941.16;10545997;28;20520;-77
2021/01/24 21:21:14;;;;;;;2.15;1.35;;;;;;;1.27;72.92;95940.00;10545649;28;20052;-77
2021/01/24 21:26:34;;;;;;;2.92;1.88;;;;;;;1.21;75.02;95944.31;10545362;28;20055;-76
2021/01/24 21:31:54;;;;;;;2.15;1.45;;;;;;;1.22;73.61;95952.00;10571401;28;20524;-78
2021/01/24 21:37:14;;;;;;;2.15;1.50;;;;;;;1.23;74.40;95953.44;10568168;28;20494;-78
2021/01/24 21:42:33;;;;;;;1.90;1.33;;;;;;;1.31;75.51;95961.56;10544712;28;20052;-77
2021/01/24 21:47:53;;;;;;;2.95;2.10;;;;;;;1.28;73.70;95976.47;10547098;28;20078;-74
2021/01/24 21:53:13;;;;;;;3.58;1.90;;;;;;;1.32;74.01;95979.50;10551111;28;20096;-75
2021/01/24 21:58:33;;;;;;;2.88;1.60;;;;;;;1.30;73.83;95985.59;10545100;28;20510;-73
2021/01/24 22:03:53;;;;;;;3.72;1.70;;;;;;;1.27;74.61;96000.50;10545153;28;20067;-73
2021/01/24 22:09:13;;;;;;;3.17;1.90;;;;;;;1.26;73.80;95995.56;10544400;28;20102;-73
2021/01/24 22:14:34;;;;;;;2.67;1.50;;;;;;;1.26;74.98;95990.78;10529767;28;20485;-73
2021/01/24 22:19:53;;;;;;;2.50;1.50;;;;;;;1.21;74.94;95994.53;10515219;28;20067;-73
2021/01/24 22:25:13;;;;;;;2.45;1.52;;;;;;;1.21;75.05;96005.53;10544549;28;20060;-73
2021/01/24 22:30:33;;;;;;;1.85;1.20;;;;;;;1.19;75.17;96007.41;10543064;28;20055;-73
2021/01/24 22:35:53;;;;;;;2.03;1.35;;;;;;;1.24;74.59;96004.38;10528813;28;20117;-73
2021/01/24 22:41:12;;;;;;;2.50;1.60;;;;;;;1.30;74.24;96007.56;10528377;28;20056;-73
2021/01/24 22:46:32;;;;;;;2.85;1.38;;;;;;;1.38;74.49;96013.69;10542593;28;20067;-73
2021/01/24 22:51:52;;;;;;;5.13;2.10;;;;;;;1.38;75.07;95999.94;10514540;28;20071;-73
2021/01/24 22:57:12;;;;;;;5.50;2.75;;;;;;;1.32;74.70;95993.25;10543750;28;20055;-73
2021/01/24 23:02:32;;;;;;;4.00;2.20;;;;;;;1.33;74.12;95987.16;10543392;28;20509;-73
2021/01/24 23:07:51;;;;;;;2.83;1.92;;;;;;;1.23;74.53;95986.44;10542925;28;20108;-73
2021/01/24 23:13:11;;;;;;;3.85;2.28;;;;;;;1.14;74.85;95989.88;10542254;28;20080;-73
2021/01/24 23:18:31;;;;;;;2.72;2.00;;;;;;;1.12;74.89;95992.47;10542242;28;20056;-73
2021/01/24 23:23:52;;;;;;;3.35;2.33;;;;;;;0.99;74.54;95990.84;10541848;28;20113;-73
2021/01/24 23:29:11;;;;;;;4.00;1.90;;;;;;;0.69;74.83;95994.75;10541227;28;20060;-73
2021/01/24 23:34:32;;;;;;;3.25;1.98;;;;;;;0.45;74.86;95992.88;10544583;28;20056;-73
2021/01/24 23:39:52;;;;;;;2.85;1.42;;;;;;;0.31;74.97;95998.00;10541558;28;20056;-74
2021/01/24 23:45:13;;;;;;;3.15;2.08;;;;;;;0.27;75.19;96003.88;10540899;28;20059;-73
2021/01/24 23:50:34;;;;;;;2.45;1.77;;;;;;;0.39;75.41;96009.63;10542332;28;20056;-73
2021/01/24 23:55:54;;;;;;;2.72;2.00;;;;;;;0.65;74.81;96013.66;10541852;28;20244;-73
